Time;durP1;ratioP1;P1;durP2;ratioP2;P2;SDS_P1;SDS_P2;PMS_P1;PMS_P2;Temp;Humidity;BMP_temperature;BMP_pressure;BME280_temperature;BME280_humidity;BME280_pressure;Samples;Min_cycle;Max_cycle;Signal;HPM_P1;HPM_P2
2022/03/01 00:00:51;;;;;;;;;;;;;;;12.89;43.31;102603.03;4903088;28;123806;-68
2022/03/01 00:03:17;;;;;;;;;;;;;;;12.87;43.39;102613.25;4939464;28;127651;-64
2022/03/01 00:05:43;;;;;;;;;;;;;;;12.85;43.34;102614.53;4940086;28;122536;-69
2022/03/01 00:08:09;;;;;;;;;;;;;;;12.84;43.45;102610.19;4923582;28;98506;-64
2022/03/01 00:10:35;;;;;;;;;;;;;;;12.83;43.14;102611.25;4919943;28;127989;-64
2022/03/01 00:13:01;;;;;;;;;;;;;;;12.81;43.63;102611.50;4921946;28;107916;-64
2022/03/01 00:15:27;;;;;;;;;;;;;;;12.79;43.40;102605.47;4922094;28;109058;-69
2022/03/01 00:17:52;;;;;;;;;;;;;;;12.76;43.34;102604.03;4889269;28;126637;-70
2022/03/01 00:20:18;;;;;;;;;;;;;;;12.76;43.18;102606.75;4919801;28;128344;-70
2022/03/01 00:22:44;;;;;;;;;;;;;;;12.75;43.46;102596.16;4921489;28;98613;-64
2022/03/01 00:25:10;;;;;;;;;;;;;;;12.73;43.28;102593.69;4920400;28;98071;-69
2022/03/01 00:27:36;;;;;;;;;;;;;;;12.71;43.54;102589.56;4920839;28;98445;-64
2022/03/01 00:30:02;;;;;;;;;;;;;;;12.70;43.24;102594.16;4919627;28;127471;-70
2022/03/01 00:32:28;;;;;;;;;;;;;;;12.68;43.35;102588.13;4920660;28;98642;-70
2022/03/01 00:34:54;;;;;;;;;;;;;;;12.66;43.13;102579.44;4919529;28;120637;-69
2022/03/01 00:37:20;;;;;;;;;;;;;;;12.65;43.34;102579.63;4921090;28;127648;-69
2022/03/01 00:39:46;;;;;;;;;;;;;;;12.62;43.43;102570.13;4938965;28;128174;-69
2022/03/01 00:42:12;;;;;;;;;;;;;;;12.62;43.18;102574.72;4940106;28;124633;-70
2022/03/01 00:44:38;;;;;;;;;;;;;;;12.60;43.38;102564.09;4939108;28;122484;-69
2022/03/01 00:47:04;;;;;;;;;;;;;;;12.59;43.37;102567.06;4939703;28;128463;-64
2022/03/01 00:49:30;;;;;;;;;;;;;;;12.56;43.39;102560.22;4921227;28;126261;-64
2022/03/01 00:51:56;;;;;;;;;;;;;;;12.55;43.17;102558.56;4921919;28;126773;-64
2022/03/01 00:54:22;;;;;;;;;;;;;;;12.52;43.41;102557.13;4920958;28;123226;-69
2022/03/01 00:56:47;;;;;;;;;;;;;;;12.52;43.25;102561.72;4940145;28;106254;-64
2022/03/01 00:59:13;;;;;;;;;;;;;;;12.51;43.39;102557.38;4920989;28;120876;-64
2022/03/01 01:01:39;;;;;;;;;;;;;;;12.49;43.29;102556.78;4922221;28;99945;-69
2022/03/01 01:04:05;;;;;;;;;;;;;;;12.48;43.42;102557.81;4938810;28;119724;-69
2022/03/01 01:06:31;;;;;;;;;;;;;;;12.46;43.37;102546.44;4912431;28;126426;-64
2022/03/01 01:08:57;;;;;;;;;;;;;;;12.44;43.25;102546.63;4919449;28;128478;-70
2022/03/01 01:11:23;;;;;;;;;;;;;;;12.43;43.56;102552.28;4920369;28;98486;-64
2022/03/01 01:13:49;;;;;;;;;;;;;;;12.42;43.17;102547.94;4919382;28;101682;-64
2022/03/01 01:16:15;;;;;;;;;;;;;;;12.41;43.61;102540.88;4885865;28;127517;-64
2022/03/01 01:18:43;;;;;;;;;;;;;;;12.39;43.52;102541.09;4939399;28;98681;-70
2022/03/01 01:21:10;;;;;;;;;;;;;;;12.37;43.20;102543.19;4919961;28;98449;-64
2022/03/01 01:23:36;;;;;;;;;;;;;;;12.36;43.33;102546.97;4902709;28;97726;-70
2022/03/01 01:26:02;;;;;;;;;;;;;;;12.34;43.51;102549.09;4883754;28;127367;-69
2022/03/01 01:28:28;;;;;;;;;;;;;;;12.34;43.60;102542.81;4920196;28;104639;-64
2022/03/01 01:30:54;;;;;;;;;;;;;;;12.31;43.62;102549.53;4919480;28;125545;-64
2022/03/01 01:33:20;;;;;;;;;;;;;;;12.31;43.12;102551.41;4902208;28;122021;-64
2022/03/01 01:35:46;;;;;;;;;;;;;;;12.29;43.33;102544.34;4900757;28;128508;-69
2022/03/01 01:38:12;;;;;;;;;;;;;;;12.28;43.49;102531.88;4919561;28;129294;-69
2022/03/01 01:40:38;;;;;;;;;;;;;;;12.26;43.20;102533.16;4935961;28;127489;-64
2022/03/01 01:43:04;;;;;;;;;;;;;;;12.26;43.60;102535.84;4922591;28;97823;-64
2022/03/01 01:45:30;;;;;;;;;;;;;;;12.24;43.50;102524.47;4919025;28;124603;-64
2022/03/01 01:47:57;;;;;;;;;;;;;;;12.24;43.59;102537.97;4931727;28;98364;-69
2022/03/01 01:50:23;;;;;;;;;;;;;;;12.22;43.54;102532.81;4919166;28;98053;-70
2022/03/01 01:52:50;;;;;;;;;;;;;;;12.21;43.25;102538.44;4920153;28;97668;-69
2022/03/01 01:55:16;;;;;;;;;;;;;;;12.20;43.45;102534.91;4918414;28;125477;-64
2022/03/01 01:57:42;;;;;;;;;;;;;;;12.19;43.42;102538.66;4920139;28;98512;-70
2022/03/01 02:00:10;;;;;;;;;;;;;;;12.18;43.27;102541.59;4934187;28;127717;-66
2022/03/01 02:02:36;;;;;;;;;;;;;;;12.17;43.42;102539.94;4940166;28;97994;-70
2022/03/01 02:05:02;;;;;;;;;;;;;;;12.15;43.52;102529.38;4904005;28;117287;-69
2022/03/01 02:07:28;;;;;;;;;;;;;;;12.15;43.34;102542.06;4938941;28;116612;-70
2022/03/01 02:09:54;;;;;;;;;;;;;;;12.15;43.55;102536.66;4937727;28;126502;-70
2022/03/01 02:12:20;;;;;;;;;;;;;;;12.13;43.39;102542.28;4937948;28;121661;-68
2022/03/01 02:14:46;;;;;;;;;;;;;;;12.11;43.47;102541.69;4937395;28;128969;-64
2022/03/01 02:17:13;;;;;;;;;;;;;;;12.11;43.53;102535.47;4930141;28;99363;-64
2022/03/01 02:19:45;;;;;;;;;;;;;;;12.08;43.47;102528.63;4919597;28;98334;-64
2022/03/01 02:22:11;;;;;;;;;;;;;;;12.08;43.55;102536.72;4902317;28;99274;-64
2022/03/01 02:24:37;;;;;;;;;;;;;;;12.07;43.64;102540.50;4928385;28;126677;-64
2022/03/01 02:27:04;;;;;;;;;;;;;;;12.06;43.33;102538.00;4903722;28;130105;-69
2022/03/01 02:29:31;;;;;;;;;;;;;;;12.04;43.63;102532.84;4920729;28;98426;-68
2022/03/01 02:31:59;;;;;;;;;;;;;;;12.04;43.28;102532.84;4938687;28;114267;-69
2022/03/01 02:34:25;;;;;;;;;;;;;;;12.02;43.35;102535.78;4938912;28;98530;-69
2022/03/01 02:36:50;;;;;;;;;;;;;;;12.01;43.28;102536.81;4926559;28;127863;-64
2022/03/01 02:39:17;;;;;;;;;;;;;;;11.99;43.05;102533.53;4918142;28;128267;-67
2022/03/01 02:41:44;;;;;;;;;;;;;;;11.98;43.25;102539.13;4920030;28;97775;-64
2022/03/01 02:44:10;;;;;;;;;;;;;;;11.97;43.66;102535.59;4901401;28;98117;-68
2022/03/01 02:46:36;;;;;;;;;;;;;;;11.96;43.11;102542.06;4900073;28;126826;-68
2022/03/01 02:49:02;;;;;;;;;;;;;;;11.94;43.18;102535.22;4921660;28;124996;-68
2022/03/01 02:51:28;;;;;;;;;;;;;;;11.93;43.71;102536.28;4938132;28;113341;-68
2022/03/01 02:53:54;;;;;;;;;;;;;;;11.91;43.21;102530.31;4936777;28;128599;-64
2022/03/01 02:56:20;;;;;;;;;;;;;;;11.91;43.15;102538.41;4903294;28;122708;-64
2022/03/01 02:58:46;;;;;;;;;;;;;;;11.91;43.29;102541.13;4919901;28;121905;-69
2022/03/01 03:01:12;;;;;;;;;;;;;;;11.88;43.28;102538.84;4931472;28;121785;-64
2022/03/01 03:03:38;;;;;;;;;;;;;;;11.87;43.12;102535.34;4922434;28;98461;-64
2022/03/01 03:06:04;;;;;;;;;;;;;;;11.86;43.58;102528.25;4921668;28;98395;-65
2022/03/01 03:08:30;;;;;;;;;;;;;;;11.85;43.27;102526.59;4922087;28;98152;-64
2022/03/01 03:10:57;;;;;;;;;;;;;;;11.85;43.25;102525.78;4920840;28;120492;-64
2022/03/01 03:13:24;;;;;;;;;;;;;;;11.82;43.47;102526.19;4922793;28;98538;-67
2022/03/01 03:15:49;;;;;;;;;;;;;;;11.81;43.27;102528.09;4903801;28;124000;-68
2022/03/01 03:18:15;;;;;;;;;;;;;;;11.79;43.46;102522.91;4932163;28;125077;-69
2022/03/01 03:20:41;;;;;;;;;;;;;;;11.79;43.46;102522.09;4944533;28;122600;-68
2022/03/01 03:23:07;;;;;;;;;;;;;;;11.78;43.20;102528.53;4923202;28;128049;-69
2022/03/01 03:25:33;;;;;;;;;;;;;;;11.75;43.27;102527.13;4940238;28;126138;-69
2022/03/01 03:27:59;;;;;;;;;;;;;;;11.75;43.28;102529.81;4922355;28;127280;-64
2022/03/01 03:30:26;;;;;;;;;;;;;;;11.74;43.46;102522.75;4941179;28;97893;-64
2022/03/01 03:32:52;;;;;;;;;;;;;;;11.73;43.16;102515.69;4923688;28;98480;-64
2022/03/01 03:35:18;;;;;;;;;;;;;;;11.73;43.18;102522.97;4940269;28;129714;-64
2022/03/01 03:37:44;;;;;;;;;;;;;;;11.71;43.25;102516.97;4940906;28;121698;-64
2022/03/01 03:40:10;;;;;;;;;;;;;;;11.69;43.30;102528.00;4941132;28;98040;-69
2022/03/01 03:42:36;;;;;;;;;;;;;;;11.67;43.46;102521.16;4940580;28;99132;-64
2022/03/01 03:45:03;;;;;;;;;;;;;;;11.66;43.58;102525.75;4922009;28;109504;-69
2022/03/01 03:47:29;;;;;;;;;;;;;;;11.66;43.70;102527.63;4921630;28;98548;-64
2022/03/01 03:49:55;;;;;;;;;;;;;;;11.66;43.07;102527.63;4921164;28;122742;-69
2022/03/01 03:52:21;;;;;;;;;;;;;;;11.64;43.74;102522.47;4920501;28;128202;-69
2022/03/01 03:54:47;;;;;;;;;;;;;;;11.63;43.41;102525.38;4921143;28;100462;-69
2022/03/01 03:57:13;;;;;;;;;;;;;;;11.61;43.50;102525.59;4921184;28;99044;-64
2022/03/01 03:59:39;;;;;;;;;;;;;;;11.61;43.51;102530.19;4920983;28;123912;-70
2022/03/01 04:02:05;;;;;;;;;;;;;;;11.59;43.25;102519.59;4921066;28;128035;-68
2022/03/01 04:04:31;;;;;;;;;;;;;;;11.59;43.33;102521.47;4921047;28;101967;-64
2022/03/01 04:06:57;;;;;;;;;;;;;;;11.58;43.43;102525.22;4920405;28;122634;-69
2022/03/01 04:09:23;;;;;;;;;;;;;;;11.57;43.32;102519.00;4920511;28;121921;-64
2022/03/01 04:11:49;;;;;;;;;;;;;;;11.55;43.20;102511.13;4924140;28;128798;-64
2022/03/01 04:14:17;;;;;;;;;;;;;;;11.54;43.34;102514.88;4940403;28;98828;-64
2022/03/01 04:16:44;;;;;;;;;;;;;;;11.54;43.45;102512.16;4940318;28;98193;-69
2022/03/01 04:19:10;;;;;;;;;;;;;;;11.53;43.81;102512.41;4940720;28;97847;-64
2022/03/01 04:21:36;;;;;;;;;;;;;;;11.51;43.48;102512.63;4940049;28;115918;-70
2022/03/01 04:24:02;;;;;;;;;;;;;;;11.50;43.22;102515.53;4941248;28;98522;-64
2022/03/01 04:26:28;;;;;;;;;;;;;;;11.49;43.38;102503.91;4940079;28;122716;-69
2022/03/01 04:28:54;;;;;;;;;;;;;;;11.47;43.40;102511.41;4939968;28;97756;-69
2022/03/01 04:31:21;;;;;;;;;;;;;;;11.45;43.69;102507.28;4940710;28;98462;-69
2022/03/01 04:33:47;;;;;;;;;;;;;;;11.45;43.48;102512.69;4941643;28;98535;-70
2022/03/01 04:36:13;;;;;;;;;;;;;;;11.44;43.87;102502.94;4921969;28;112164;-65
2022/03/01 04:38:39;;;;;;;;;;;;;;;11.43;43.62;102514.78;4939403;28;117890;-70
2022/03/01 04:41:05;;;;;;;;;;;;;;;11.41;43.46;102512.31;4928745;28;100222;-63
2022/03/01 04:43:31;;;;;;;;;;;;;;;11.40;43.25;102515.25;4920911;28;98308;-64
2022/03/01 04:45:57;;;;;;;;;;;;;;;11.39;43.36;102514.41;4925593;28;123826;-64
2022/03/01 04:48:23;;;;;;;;;;;;;;;11.37;43.88;102516.50;4939879;28;97764;-64
2022/03/01 04:50:50;;;;;;;;;;;;;;;11.37;43.40;102521.09;4921546;28;98345;-69
2022/03/01 04:53:16;;;;;;;;;;;;;;;11.35;43.76;102517.78;4939873;28;117588;-65
2022/03/01 04:55:42;;;;;;;;;;;;;;;11.34;43.68;102516.13;4939581;28;108278;-64
2022/03/01 04:58:09;;;;;;;;;;;;;;;11.31;43.20;102517.38;4940245;28;97860;-69
2022/03/01 05:00:35;;;;;;;;;;;;;;;11.31;43.47;102517.38;4939657;28;127296;-70
2022/03/01 05:03:01;;;;;;;;;;;;;;;11.30;43.68;102513.88;4941233;28;98369;-64
2022/03/01 05:05:26;;;;;;;;;;;;;;;11.29;43.47;102514.91;4938712;28;125919;-70
2022/03/01 05:07:52;;;;;;;;;;;;;;;11.27;43.75;102517.00;4939311;28;123713;-64
2022/03/01 05:10:19;;;;;;;;;;;;;;;11.26;43.50;102520.75;4920739;28;98828;-69
2022/03/01 05:12:47;;;;;;;;;;;;;;;11.26;43.30;102522.63;4920285;28;99070;-64
2022/03/01 05:15:13;;;;;;;;;;;;;;;11.24;43.57;102517.47;4920508;28;98556;-64
2022/03/01 05:17:39;;;;;;;;;;;;;;;11.23;43.80;102518.50;4920363;28;98090;-64
2022/03/01 05:20:05;;;;;;;;;;;;;;;11.23;43.98;102525.78;4919732;28;98339;-64
2022/03/01 05:22:32;;;;;;;;;;;;;;;11.22;44.07;102524.94;4885624;28;100305;-69
2022/03/01 05:24:58;;;;;;;;;;;;;;;11.20;43.77;102529.75;4902153;28;98258;-64
2022/03/01 05:27:24;;;;;;;;;;;;;;;11.19;43.58;102528.09;4919507;28;106323;-70
2022/03/01 05:29:50;;;;;;;;;;;;;;;11.19;43.79;102527.25;4919402;28;128617;-64
2022/03/01 05:32:17;;;;;;;;;;;;;;;11.19;43.28;102527.25;4902145;28;100012;-65
2022/03/01 05:34:44;;;;;;;;;;;;;;;11.17;43.85;102521.28;4902317;28;98033;-64
2022/03/01 05:37:09;;;;;;;;;;;;;;;11.15;43.47;102523.34;4926248;28;97901;-64
2022/03/01 05:39:36;;;;;;;;;;;;;;;11.15;43.40;102528.75;4938513;28;128345;-64
2022/03/01 05:42:02;;;;;;;;;;;;;;;11.14;43.66;102525.25;4939362;28;124280;-69
2022/03/01 05:44:28;;;;;;;;;;;;;;;11.12;43.48;102524.66;4921173;28;97989;-64
2022/03/01 05:46:53;;;;;;;;;;;;;;;11.12;43.33;102519.25;4919959;28;120603;-69
2022/03/01 05:49:19;;;;;;;;;;;;;;;11.12;43.66;102526.50;4919773;28;128193;-70
2022/03/01 05:51:45;;;;;;;;;;;;;;;11.11;43.76;102536.47;4920032;28;128105;-64
2022/03/01 05:54:11;;;;;;;;;;;;;;;11.11;43.95;102527.53;4900939;28;126474;-69
2022/03/01 05:56:37;;;;;;;;;;;;;;;11.09;43.19;102530.47;4919912;28;98190;-64
2022/03/01 05:59:03;;;;;;;;;;;;;;;11.09;43.56;102530.47;4918667;28;126125;-64
2022/03/01 06:01:29;;;;;;;;;;;;;;;11.09;43.28;102537.75;4901265;28;127964;-63
2022/03/01 06:03:55;;;;;;;;;;;;;;;11.09;43.95;102535.88;4919642;28;98033;-63
2022/03/01 06:06:21;;;;;;;;;;;;;;;11.10;43.51;102539.41;4902197;28;122527;-63
2022/03/01 06:08:47;;;;;;;;;;;;;;;11.10;44.10;102528.59;4918494;28;126573;-69
2022/03/01 06:11:13;;;;;;;;;;;;;;;11.11;43.79;102541.88;4919058;28;127758;-68
2022/03/01 06:13:39;;;;;;;;;;;;;;;11.11;43.80;102541.88;4885717;28;98126;-63
2022/03/01 06:16:05;;;;;;;;;;;;;;;11.13;43.23;102538.97;4919868;28;97970;-68
2022/03/01 06:18:31;;;;;;;;;;;;;;;11.13;43.69;102542.50;4900498;28;98745;-68
2022/03/01 06:20:57;;;;;;;;;;;;;;;11.16;44.02;102535.81;4919572;28;119876;-68
2022/03/01 06:23:23;;;;;;;;;;;;;;;11.17;43.29;102532.06;4919185;28;127362;-69
2022/03/01 06:25:49;;;;;;;;;;;;;;;11.17;43.90;102530.19;4919463;28;97979;-63
2022/03/01 06:28:15;;;;;;;;;;;;;;;11.21;43.23;102535.97;4919997;28;117693;-63
2022/03/01 06:30:41;;;;;;;;;;;;;;;11.22;43.28;102530.34;4918901;28;126235;-68
2022/03/01 06:33:07;;;;;;;;;;;;;;;11.24;43.93;102528.28;4920347;28;128531;-68
2022/03/01 06:35:33;;;;;;;;;;;;;;;11.27;43.88;102529.69;4939092;28;121918;-63
2022/03/01 06:37:59;;;;;;;;;;;;;;;11.29;43.46;102527.59;4941967;28;123315;-63
2022/03/01 06:40:24;;;;;;;;;;;;;;;11.31;43.78;102530.88;4941072;28;129320;-69
2022/03/01 06:42:51;;;;;;;;;;;;;;;11.36;43.95;102532.91;4941303;28;98121;-68
2022/03/01 06:45:17;;;;;;;;;;;;;;;11.39;43.61;102530.59;4940327;28;99162;-63
2022/03/01 06:47:42;;;;;;;;;;;;;;;11.42;43.37;102532.88;4941503;28;127041;-63
2022/03/01 06:50:09;;;;;;;;;;;;;;;11.47;43.78;102540.28;4942122;28;114048;-69
2022/03/01 06:52:35;;;;;;;;;;;;;;;11.51;44.01;102539.66;4942086;28;100675;-63
2022/03/01 06:55:02;;;;;;;;;;;;;;;11.54;43.52;102533.78;4942708;28;98295;-63
2022/03/01 06:57:28;;;;;;;;;;;;;;;11.59;43.81;102533.09;4934205;28;123906;-68
2022/03/01 06:59:54;;;;;;;;;;;;;;;11.64;43.31;102537.84;4925471;28;122945;-69
2022/03/01 07:02:21;;;;;;;;;;;;;;;11.69;43.90;102538.00;4930195;28;98530;-68
2022/03/01 07:04:46;;;;;;;;;;;;;;;11.74;43.48;102532.72;4924347;28;98025;-68
2022/03/01 07:07:12;;;;;;;;;;;;;;;11.80;43.53;102535.38;4939974;28;129029;-63
2022/03/01 07:09:38;;;;;;;;;;;;;;;11.90;43.29;102531.34;4939761;28;98629;-64
2022/03/01 07:12:04;;;;;;;;;;;;;;;12.00;43.59;102521.66;4939636;28;127976;-63
2022/03/01 07:14:30;;;;;;;;;;;;;;;12.08;43.70;102522.38;4940085;28;111283;-68
2022/03/01 07:16:56;;;;;;;;;;;;;;;12.16;43.62;102535.59;4941682;28;112780;-63
2022/03/01 07:19:22;;;;;;;;;;;;;;;12.22;43.92;102524.69;4939164;28;128578;-63
2022/03/01 07:21:48;;;;;;;;;;;;;;;12.30;43.71;102520.84;4940969;28;126666;-64
2022/03/01 07:24:14;;;;;;;;;;;;;;;12.41;43.71;102525.47;4941112;28;121483;-63
2022/03/01 07:26:40;;;;;;;;;;;;;;;12.53;43.25;102525.50;4930916;28;128489;-63
2022/03/01 07:29:06;;;;;;;;;;;;;;;12.63;43.41;102517.66;4893483;28;127825;-69
2022/03/01 07:31:32;;;;;;;;;;;;;;;12.75;43.31;102520.38;4941191;28;107219;-68
2022/03/01 07:33:58;;;;;;;;;;;;;;;12.86;43.27;102514.19;4930625;28;98213;-64
2022/03/01 07:36:23;;;;;;;;;;;;;;;12.99;43.34;102516.66;4920838;28;129325;-68
2022/03/01 07:38:49;;;;;;;;;;;;;;;13.14;43.21;102509.97;4920364;28;127130;-64
2022/03/01 07:41:15;;;;;;;;;;;;;;;13.28;43.08;102511.38;4920942;28;127704;-64
2022/03/01 07:43:41;;;;;;;;;;;;;;;13.42;43.03;102507.38;4920726;28;120298;-69
2022/03/01 07:46:11;;;;;;;;;;;;;;;13.57;43.32;102506.91;4903960;28;101280;-68
2022/03/01 07:48:41;;;;;;;;;;;;;;;13.73;42.92;102505.34;4938285;28;98361;-64
2022/03/01 07:51:07;;;;;;;;;;;;;;;13.91;42.91;102507.03;4922786;28;97890;-65
2022/03/01 07:53:33;;;;;;;;;;;;;;;14.10;42.68;102497.66;4923001;28;122287;-68
2022/03/01 07:55:59;;;;;;;;;;;;;;;14.32;42.65;102497.81;4921619;28;122567;-68
2022/03/01 07:58:26;;;;;;;;;;;;;;;14.56;42.48;102481.44;4919751;28;126982;-68
2022/03/01 08:00:52;;;;;;;;;;;;;;;14.78;42.47;102482.38;4921564;28;98574;-69
2022/03/01 08:03:18;;;;;;;;;;;;;;;15.03;42.46;102490.06;4922644;28;97830;-64
2022/03/01 08:05:45;;;;;;;;;;;;;;;15.32;42.26;102488.03;4894456;28;126807;-67
2022/03/01 08:08:11;;;;;;;;;;;;;;;15.66;41.96;102480.66;4942029;28;98254;-64
2022/03/01 08:10:37;;;;;;;;;;;;;;;16.05;41.66;102477.03;4940539;28;97917;-64
2022/03/01 08:13:03;;;;;;;;;;;;;;;16.63;41.17;102476.22;4929257;28;122594;-64
2022/03/01 08:15:29;;;;;;;;;;;;;;;17.29;40.81;102470.44;4921765;28;127771;-65
2022/03/01 08:17:56;;;;;;;;;;;;;;;18.01;40.20;102474.31;4940863;28;98584;-68
2022/03/01 08:20:22;;;;;;;;;;;;;;;18.78;39.65;102471.66;4939897;28;98148;-64
2022/03/01 08:22:48;;;;;;;;;;;;;;;19.44;39.10;102477.00;4922160;28;97815;-64
2022/03/01 08:25:14;;;;;;;;;;;;;;;19.88;39.17;102484.47;4920640;28;99262;-68
2022/03/01 08:27:40;;;;;;;;;;;;;;;20.32;39.06;102475.47;4923520;28;98583;-68
2022/03/01 08:30:06;;;;;;;;;;;;;;;20.95;38.95;102470.03;4921354;28;128438;-67
2022/03/01 08:32:32;;;;;;;;;;;;;;;21.76;38.27;102468.28;4920379;28;120373;-67
2022/03/01 08:34:58;;;;;;;;;;;;;;;22.61;37.52;102471.97;4919266;28;118148;-65
2022/03/01 08:37:24;;;;;;;;;;;;;;;23.48;37.31;102467.63;4920413;28;128372;-65
2022/03/01 08:39:50;;;;;;;;;;;;;;;24.63;36.47;102472.69;4920543;28;98710;-68
2022/03/01 08:42:16;;;;;;;;;;;;;;;25.65;35.73;102472.66;4922128;28;122344;-65
2022/03/01 08:44:42;;;;;;;;;;;;;;;26.67;34.96;102476.91;4930991;28;98042;-65
2022/03/01 08:47:08;;;;;;;;;;;;;;;27.92;34.07;102478.47;4939902;28;127993;-65
2022/03/01 08:49:34;;;;;;;;;;;;;;;28.79;33.71;102479.28;4939744;28;97888;-65
2022/03/01 08:52:00;;;;;;;;;;;;;;;29.59;33.49;102477.97;4937931;28;122253;-68
2022/03/01 08:54:26;;;;;;;;;;;;;;;30.48;32.79;102475.03;4939767;28;106855;-65
2022/03/01 08:56:52;;;;;;;;;;;;;;;31.71;31.95;102471.31;4939546;28;127263;-65
2022/03/01 08:59:18;;;;;;;;;;;;;;;33.03;31.01;102470.34;4939149;28;126747;-68
2022/03/01 09:01:44;;;;;;;;;;;;;;;34.14;30.14;102467.91;4938344;28;112856;-67
2022/03/01 09:04:10;;;;;;;;;;;;;;;35.33;29.43;102459.44;4940338;28;99684;-65
2022/03/01 09:06:36;;;;;;;;;;;;;;;36.37;28.62;102455.06;4939278;28;127110;-67
2022/03/01 09:09:01;;;;;;;;;;;;;;;37.34;28.22;102452.28;4939154;28;126664;-65
2022/03/01 09:11:27;;;;;;;;;;;;;;;38.43;27.28;102440.94;4922995;28;125818;-65
2022/03/01 09:13:53;;;;;;;;;;;;;;;39.41;26.99;102424.75;4913374;28;126124;-63
2022/03/01 09:16:21;;;;;;;;;;;;;;;39.94;26.58;102428.94;4918478;28;119148;-63
2022/03/01 09:18:47;;;;;;;;;;;;;;;40.12;26.64;102415.34;4918655;28;128539;-64
2022/03/01 09:21:14;;;;;;;;;;;;;;;39.96;26.70;102409.53;4919636;28;108649;-65
2022/03/01 09:23:43;;;;;;;;;;;;;;;39.78;27.00;102401.34;4900477;28;127127;-65
2022/03/01 09:26:09;;;;;;;;;;;;;;;39.41;27.37;102393.72;4920116;28;110275;-63
2022/03/01 09:28:35;;;;;;;;;;;;;;;39.20;27.89;102383.50;4918482;28;127734;-63
2022/03/01 09:31:01;;;;;;;;;;;;;;;38.78;28.08;102380.72;4918102;28;122420;-65
2022/03/01 09:33:27;;;;;;;;;;;;;;;38.45;28.41;102373.75;4902233;28;98041;-64
2022/03/01 09:35:53;;;;;;;;;;;;;;;38.22;28.99;102367.91;4919496;28;116149;-65
2022/03/01 09:38:19;;;;;;;;;;;;;;;38.21;28.66;102360.66;4923043;28;112002;-65
2022/03/01 09:40:48;;;;;;;;;;;;;;;38.22;28.60;102356.63;4938364;28;98135;-63
2022/03/01 09:43:14;;;;;;;;;;;;;;;38.31;28.64;102352.13;4921309;28;103087;-63
2022/03/01 09:45:41;;;;;;;;;;;;;;;38.51;28.54;102343.13;4938270;28;98777;-65
2022/03/01 09:48:06;;;;;;;;;;;;;;;38.84;28.09;102338.81;4939125;28;98334;-66
2022/03/01 09:50:32;;;;;;;;;;;;;;;39.71;27.59;102345.00;4938561;28;122376;-66
2022/03/01 09:52:59;;;;;;;;;;;;;;;40.63;26.23;102351.19;4935625;28;99395;-63
2022/03/01 09:55:26;;;;;;;;;;;;;;;41.49;26.07;102349.50;4920779;28;99680;-66
2022/03/01 09:57:52;;;;;;;;;;;;;;;42.34;24.94;102341.03;4938673;28;98414;-64
2022/03/01 10:00:18;;;;;;;;;;;;;;;43.07;24.42;102343.53;4937456;28;122861;-65
2022/03/01 10:02:44;;;;;;;;;;;;;;;43.65;24.29;102332.03;4937815;28;114323;-66
2022/03/01 10:05:11;;;;;;;;;;;;;;;43.80;24.41;102332.38;4938507;28;98184;-64
2022/03/01 10:07:42;;;;;;;;;;;;;;;44.06;23.94;102331.13;4925846;28;98237;-65
2022/03/01 10:10:16;;;;;;;;;;;;;;;44.42;23.92;102334.81;4921513;28;97770;-66
2022/03/01 10:12:42;;;;;;;;;;;;;;;44.86;23.53;102329.16;4922376;28;98923;-64
2022/03/01 10:15:10;;;;;;;;;;;;;;;45.16;23.32;102313.41;4922123;28;102217;-66
2022/03/01 10:17:38;;;;;;;;;;;;;;;45.44;22.98;102320.88;4904502;28;98187;-63
2022/03/01 10:20:10;;;;;;;;;;;;;;;45.81;22.59;102314.50;4922144;28;97849;-65
2022/03/01 10:22:47;;;;;;;;;;;;;;;45.97;22.57;102305.69;4922038;28;125577;-64
2022/03/01 10:25:14;;;;;;;;;;;;;;;45.86;22.52;102305.34;4922099;28;124846;-65
2022/03/01 10:27:40;;;;;;;;;;;;;;;45.48;22.62;102293.06;4923114;28;97979;-65
2022/03/01 10:30:07;;;;;;;;;;;;;;;45.26;22.99;102293.09;4904538;28;118395;-66
2022/03/01 10:32:33;;;;;;;;;;;;;;;45.45;22.74;102293.19;4905006;28;98202;-64
2022/03/01 10:35:05;;;;;;;;;;;;;;;45.66;22.49;102297.22;4908754;28;98781;-64
2022/03/01 10:37:33;;;;;;;;;;;;;;;45.57;22.10;102294.34;4942457;28;98633;-66
2022/03/01 10:40:09;;;;;;;;;;;;;;;45.43;22.44;102285.13;4941858;28;118470;-65
2022/03/01 10:42:35;;;;;;;;;;;;;;;45.26;22.38;102293.09;4942144;28;98892;-65
2022/03/01 10:45:01;;;;;;;;;;;;;;;45.21;22.35;102275.84;4941548;28;98622;-66
2022/03/01 10:47:28;;;;;;;;;;;;;;;45.12;22.24;102273.75;4941702;28;128374;-64
2022/03/01 10:50:08;;;;;;;;;;;;;;;44.90;22.44;102275.81;4941130;28;97815;-63
2022/03/01 10:52:36;;;;;;;;;;;;;;;44.51;22.37;102256.09;4941996;28;98543;-64
2022/03/01 10:55:02;;;;;;;;;;;;;;;44.23;22.54;102255.06;4942686;28;98473;-63
2022/03/01 10:57:28;;;;;;;;;;;;;;;43.95;22.46;102253.25;4941673;28;97884;-63
2022/03/01 10:59:54;;;;;;;;;;;;;;;43.57;22.79;102249.19;4940199;28;121756;-63
2022/03/01 11:02:20;;;;;;;;;;;;;;;43.29;22.83;102242.38;4941283;28;128195;-63
2022/03/01 11:04:47;;;;;;;;;;;;;;;42.93;23.32;102236.22;4940955;28;98740;-65
2022/03/01 11:07:13;;;;;;;;;;;;;;;42.32;23.27;102235.09;4941635;28;114107;-66
2022/03/01 11:09:39;;;;;;;;;;;;;;;41.60;24.33;102228.41;4940891;28;117343;-65
2022/03/01 11:12:06;;;;;;;;;;;;;;;40.97;24.42;102228.63;4941996;28;110771;-63
2022/03/01 11:14:43;;;;;;;;;;;;;;;40.40;24.85;102218.47;4923694;28;98262;-63
2022/03/01 11:17:22;;;;;;;;;;;;;;;39.86;25.33;102218.63;4922905;28;117797;-66
2022/03/01 11:20:01;;;;;;;;;;;;;;;39.40;25.47;102212.47;4907185;28;98095;-65
2022/03/01 11:22:46;;;;;;;;;;;;;;;39.00;25.84;102209.41;4924569;28;121679;-65
2022/03/01 11:25:23;;;;;;;;;;;;;;;38.65;25.97;102198.56;4908021;28;120101;-64
2022/03/01 11:27:50;;;;;;;;;;;;;;;38.35;26.07;102204.94;4923867;28;97909;-65
2022/03/01 11:30:17;;;;;;;;;;;;;;;38.06;26.47;102196.78;4940007;28;119678;-63
2022/03/01 11:32:44;;;;;;;;;;;;;;;37.79;26.45;102193.78;4926323;28;104360;-63
2022/03/01 11:35:22;;;;;;;;;;;;;;;37.53;26.92;102189.56;4921145;28;98375;-66
2022/03/01 11:38:07;;;;;;;;;;;;;;;37.25;26.66;102188.50;4921794;28;98568;-63
2022/03/01 11:40:35;;;;;;;;;;;;;;;36.97;27.28;102186.66;4921753;28;97851;-63
2022/03/01 11:43:16;;;;;;;;;;;;;;;36.74;27.26;102184.31;4904031;28;99311;-64
2022/03/01 11:45:50;;;;;;;;;;;;;;;36.51;27.30;102182.03;4921202;28;98710;-63
2022/03/01 11:48:21;;;;;;;;;;;;;;;36.28;27.39;102187.28;4921309;28;115669;-66
2022/03/01 11:50:49;;;;;;;;;;;;;;;36.03;27.62;102179.69;4922288;28;97819;-66
2022/03/01 11:53:17;;;;;;;;;;;;;;;35.75;27.58;102176.88;4922362;28;98553;-64
2022/03/01 11:55:49;;;;;;;;;;;;;;;35.45;28.01;102175.25;4904145;28;121424;-67
2022/03/01 11:58:15;;;;;;;;;;;;;;;35.15;27.91;102169.97;4922185;28;97743;-64
2022/03/01 12:00:41;;;;;;;;;;;;;;;34.81;28.25;102161.03;4887341;28;123895;-67
2022/03/01 12:03:12;;;;;;;;;;;;;;;34.42;28.40;102165.19;4919859;28;127029;-64
2022/03/01 12:05:38;;;;;;;;;;;;;;;34.04;28.73;102158.19;4921145;28;98637;-67
2022/03/01 12:08:09;;;;;;;;;;;;;;;33.72;29.00;102155.13;4921770;28;98138;-64
2022/03/01 12:10:35;;;;;;;;;;;;;;;33.38;28.57;102148.78;4921120;28;120435;-65
2022/03/01 12:13:07;;;;;;;;;;;;;;;33.04;28.84;102137.66;4921331;28;99112;-64
2022/03/01 12:15:34;;;;;;;;;;;;;;;32.67;29.27;102138.41;4921528;28;98558;-67
2022/03/01 12:18:11;;;;;;;;;;;;;;;32.34;29.05;102130.75;4920030;28;124212;-64
2022/03/01 12:20:38;;;;;;;;;;;;;;;31.97;29.53;102136.97;4920213;28;119277;-64
2022/03/01 12:23:04;;;;;;;;;;;;;;;31.59;29.71;102126.75;4886236;28;128178;-66
2022/03/01 12:25:35;;;;;;;;;;;;;;;31.23;29.81;102130.88;4919341;28;126978;-68
2022/03/01 12:28:02;;;;;;;;;;;;;;;30.86;29.93;102136.13;4922449;28;111862;-64